createdAt,value
2019-03-28T00:00:45.231Z,81.30
2019-03-28T00:06:10.935Z,81.40
2019-03-28T00:11:36.381Z,81.60
2019-03-28T00:17:04.190Z,81.90
2019-03-28T00:22:43.966Z,82.60
2019-03-28T00:28:08.336Z,82.80
2019-03-28T00:33:33.457Z,82.60
2019-03-28T00:38:58.225Z,82.90
2019-03-28T00:44:23.087Z,82.70
2019-03-28T00:49:47.717Z,82.60
2019-03-28T00:55:12.814Z,82.50
2019-03-28T01:00:38.264Z,82.80
2019-03-28T01:06:03.765Z,83.50
2019-03-28T01:11:28.667Z,83.40
2019-03-28T01:16:53.504Z,83.60
2019-03-28T01:22:18.345Z,83.60
2019-03-28T01:27:43.371Z,84.00
2019-03-28T01:33:08.272Z,84.20
2019-03-28T01:38:33.576Z,84.10
2019-03-28T01:43:58.370Z,83.90
2019-03-28T01:49:22.772Z,84.00
2019-03-28T01:54:47.763Z,83.80
2019-03-28T02:00:12.985Z,83.80
2019-03-28T02:05:37.786Z,84.00
2019-03-28T02:11:03.177Z,83.80
2019-03-28T02:16:28.583Z,84.00
2019-03-28T02:21:53.556Z,84.20
2019-03-28T02:27:23.876Z,84.10
2019-03-28T02:32:44.538Z,84.20
2019-03-28T02:38:09.118Z,84.00
2019-03-28T02:43:33.730Z,84.10
2019-03-28T02:48:58.758Z,84.40
2019-03-28T02:54:23.572Z,84.70
2019-03-28T02:59:48.714Z,85.40
2019-03-28T03:05:13.994Z,85.50
2019-03-28T03:10:38.559Z,85.80
2019-03-28T03:16:03.537Z,85.90
2019-03-28T03:21:28.606Z,85.80
2019-03-28T03:26:53.617Z,85.90
2019-03-28T03:32:18.767Z,86.00
2019-03-28T03:37:44.529Z,85.90
2019-03-28T03:43:09.592Z,85.90
2019-03-28T03:48:35.104Z,86.30
2019-03-28T03:53:59.927Z,86.80
2019-03-28T03:59:24.947Z,87.10
2019-03-28T04:04:50.123Z,87.40
2019-03-28T04:10:16.125Z,87.20
2019-03-28T04:15:40.953Z,87.10
2019-03-28T04:21:06.001Z,86.70
2019-03-28T04:26:31.813Z,86.80
2019-03-28T04:31:57.411Z,87.00
2019-03-28T04:37:30.715Z,87.10
2019-03-28T04:42:55.702Z,87.20
2019-03-28T04:48:20.394Z,87.30
2019-03-28T04:53:45.054Z,87.50
2019-03-28T04:59:09.641Z,87.90
2019-03-28T05:04:34.432Z,88.30
2019-03-28T05:09:59.783Z,88.60
2019-03-28T05:15:24.989Z,88.60
2019-03-28T05:20:49.587Z,88.80
2019-03-28T05:26:14.167Z,89.00
2019-03-28T05:31:39.447Z,89.00
2019-03-28T05:37:04.637Z,89.00
2019-03-28T05:42:30.376Z,89.20
2019-03-28T05:47:55.292Z,89.30
2019-03-28T05:53:20.514Z,89.50
2019-03-28T05:58:45.719Z,89.70
2019-03-28T06:04:10.697Z,89.50
2019-03-28T06:09:40.129Z,89.70
2019-03-28T06:15:03.874Z,90.00
2019-03-28T06:20:39.617Z,90.00
2019-03-28T06:26:04.323Z,90.00
2019-03-28T06:31:29.246Z,90.00
2019-03-28T06:36:54.220Z,89.70
2019-03-28T06:42:18.879Z,89.60
2019-03-28T06:47:43.546Z,89.20
2019-03-28T06:53:08.730Z,89.30
2019-03-28T06:58:33.984Z,89.50
2019-03-28T07:03:59.210Z,89.30
2019-03-28T07:09:24.057Z,89.10
2019-03-28T07:14:48.938Z,89.00
2019-03-28T07:20:13.890Z,88.90
2019-03-28T07:25:39.215Z,88.90
2019-03-28T07:31:04.759Z,88.60
2019-03-28T07:36:29.834Z,88.60
2019-03-28T07:41:55.103Z,88.20
2019-03-28T07:47:27.018Z,88.10
2019-03-28T07:52:55.145Z,87.60
2019-03-28T07:58:19.513Z,87.40
2019-03-28T08:03:45.025Z,87.20
2019-03-28T08:09:11.170Z,86.70
2019-03-28T08:14:36.373Z,86.40
2019-03-28T08:20:01.486Z,85.90
2019-03-28T08:25:26.665Z,85.80
2019-03-28T08:30:51.681Z,85.80
2019-03-28T08:36:17.649Z,85.50
2019-03-28T08:41:42.102Z,85.50
2019-03-28T08:47:07.570Z,84.10
2019-03-28T08:52:31.872Z,83.80
2019-03-28T08:57:56.631Z,83.80
2019-03-28T09:03:22.222Z,83.50
2019-03-28T09:08:46.696Z,83.30
2019-03-28T09:14:11.719Z,83.00
2019-03-28T09:19:38.995Z,82.60
2019-03-28T09:25:03.368Z,82.40
2019-03-28T09:30:48.134Z,82.20
2019-03-28T09:36:05.984Z,82.00
2019-03-28T09:41:30.955Z,81.90
2019-03-28T09:46:56.386Z,81.70
2019-03-28T09:52:21.382Z,81.60
2019-03-28T09:57:46.402Z,80.90
2019-03-28T10:03:11.979Z,80.80
2019-03-28T10:08:36.799Z,80.70
2019-03-28T10:14:02.106Z,80.30
2019-03-28T10:19:26.899Z,79.70
2019-03-28T10:24:51.887Z,79.50
2019-03-28T10:30:17.653Z,79.30
2019-03-28T10:35:42.696Z,78.80
2019-03-28T10:41:08.054Z,78.00
2019-03-28T10:46:33.506Z,77.80
2019-03-28T10:51:58.601Z,77.00
2019-03-28T10:57:29.911Z,76.20
2019-03-28T11:02:50.542Z,75.30
2019-03-28T11:08:16.518Z,74.00
2019-03-28T11:13:41.632Z,73.00
2019-03-28T11:19:06.561Z,72.80
2019-03-28T11:24:31.963Z,72.60
2019-03-28T11:29:56.263Z,72.40
2019-03-28T11:35:21.541Z,72.10
2019-03-28T11:40:46.421Z,71.60
2019-03-28T11:46:11.658Z,70.40
2019-03-28T11:51:36.582Z,69.70
2019-03-28T11:57:01.907Z,69.50
2019-03-28T12:02:27.471Z,68.60
2019-03-28T12:07:52.458Z,68.80
2019-03-28T12:13:17.055Z,68.50
2019-03-28T12:18:41.964Z,67.70
2019-03-28T12:24:07.476Z,67.80
2019-03-28T12:29:35.688Z,66.70
2019-03-28T12:34:58.323Z,66.80
2019-03-28T12:40:23.694Z,67.20
2019-03-28T12:45:54.061Z,67.00
2019-03-28T12:51:22.045Z,66.50
2019-03-28T12:56:45.657Z,65.50
2019-03-28T13:02:10.255Z,65.20
2019-03-28T13:07:35.283Z,64.90
2019-03-28T13:13:00.586Z,65.10
2019-03-28T13:18:25.383Z,65.30
2019-03-28T13:23:50.841Z,65.50
2019-03-28T13:29:15.641Z,65.20
2019-03-28T13:34:40.297Z,65.40
2019-03-28T13:40:05.594Z,64.80
2019-03-28T13:45:31.003Z,64.20
2019-03-28T13:50:55.941Z,62.80
2019-03-28T13:56:21.348Z,61.80
2019-03-28T14:01:46.476Z,62.10
2019-03-28T14:07:11.528Z,62.00
2019-03-28T14:12:36.645Z,61.60
2019-03-28T14:18:01.445Z,61.60
2019-03-28T14:23:26.491Z,60.80
2019-03-28T14:28:51.184Z,61.30
2019-03-28T14:34:16.276Z,61.30
2019-03-28T14:39:41.335Z,61.20
2019-03-28T14:45:06.447Z,60.60
2019-03-28T14:50:39.243Z,60.70
2019-03-28T14:56:04.442Z,60.20
2019-03-28T15:01:29.428Z,60.10
2019-03-28T15:06:54.715Z,60.20
2019-03-28T15:12:19.743Z,59.60
2019-03-28T15:17:45.074Z,59.20
2019-03-28T15:23:10.322Z,59.40
2019-03-28T15:28:35.410Z,59.70
2019-03-28T15:34:00.779Z,59.10
2019-03-28T15:39:25.305Z,59.40
2019-03-28T15:44:50.273Z,59.50
2019-03-28T15:50:15.729Z,59.30
2019-03-28T15:55:40.394Z,59.30
2019-03-28T16:01:05.355Z,58.90
2019-03-28T16:06:29.980Z,58.70
2019-03-28T16:12:02.452Z,58.80
2019-03-28T16:17:21.767Z,58.50
2019-03-28T16:22:46.764Z,58.90
2019-03-28T16:28:11.809Z,58.70
2019-03-28T16:33:36.657Z,58.90
2019-03-28T16:39:01.884Z,59.00
2019-03-28T16:44:27.185Z,58.80
2019-03-28T16:49:52.377Z,58.60
2019-03-28T16:55:26.163Z,58.70
2019-03-28T17:00:43.783Z,58.70
2019-03-28T17:06:08.771Z,59.00
2019-03-28T17:11:33.419Z,58.60
2019-03-28T17:16:58.700Z,59.40
2019-03-28T17:22:23.825Z,59.40
2019-03-28T17:27:48.964Z,59.50
2019-03-28T17:33:17.656Z,59.90
2019-03-28T17:38:40.737Z,60.20
2019-03-28T17:44:06.378Z,60.70
2019-03-28T17:49:30.814Z,61.30
2019-03-28T17:54:55.709Z,61.60
2019-03-28T18:00:20.918Z,61.80
2019-03-28T18:05:57.354Z,62.10
2019-03-28T18:11:13.037Z,62.30
2019-03-28T18:16:38.663Z,62.40
2019-03-28T18:22:04.316Z,62.70
2019-03-28T18:27:29.265Z,62.90
2019-03-28T18:32:54.745Z,63.20
2019-03-28T18:38:20.212Z,63.50
2019-03-28T18:43:44.982Z,63.70
2019-03-28T18:49:10.170Z,63.20
2019-03-28T18:54:34.860Z,62.60
2019-03-28T19:00:00.115Z,63.60
2019-03-28T19:05:24.717Z,64.30
2019-03-28T19:10:50.969Z,63.90
2019-03-28T19:16:16.234Z,64.00
2019-03-28T19:21:40.834Z,64.90
2019-03-28T19:27:05.764Z,65.70
2019-03-28T19:32:32.451Z,66.50
2019-03-28T19:37:58.505Z,68.30
2019-03-28T19:43:24.315Z,68.80
2019-03-28T19:48:49.874Z,69.00
2019-03-28T19:54:14.849Z,69.40
2019-03-28T19:59:40.102Z,69.30
2019-03-28T20:05:06.013Z,69.60
2019-03-28T20:10:31.412Z,69.40
2019-03-28T20:15:56.799Z,69.00
2019-03-28T20:21:21.811Z,69.00
2019-03-28T20:26:46.634Z,69.30
2019-03-28T20:32:12.161Z,68.90
2019-03-28T20:37:37.933Z,68.90
2019-03-28T20:43:02.826Z,69.10
2019-03-28T20:48:27.812Z,69.30
2019-03-28T20:53:53.342Z,69.60
2019-03-28T20:59:18.965Z,70.10
2019-03-28T21:04:44.105Z,70.20
2019-03-28T21:10:12.735Z,70.20
2019-03-28T21:15:37.431Z,70.40
2019-03-28T21:21:02.916Z,70.50
2019-03-28T21:26:29.425Z,70.60
2019-03-28T21:31:53.961Z,71.00
2019-03-28T21:37:18.962Z,71.20
2019-03-28T21:42:43.573Z,71.30
2019-03-28T21:48:08.284Z,72.00
2019-03-28T21:53:33.411Z,72.30
2019-03-28T21:58:58.138Z,72.50
2019-03-28T22:04:23.400Z,72.50
2019-03-28T22:09:48.460Z,72.70
2019-03-28T22:15:13.967Z,72.50
2019-03-28T22:20:39.135Z,74.00
2019-03-28T22:26:03.508Z,74.50
2019-03-28T22:31:28.722Z,74.80
2019-03-28T22:36:57.613Z,75.70
2019-03-28T22:42:20.109Z,76.20
2019-03-28T22:47:44.923Z,76.60
2019-03-28T22:53:09.298Z,76.90
2019-03-28T22:58:35.043Z,77.40
2019-03-28T23:04:00.597Z,77.10
2019-03-28T23:09:25.642Z,77.70
2019-03-28T23:14:50.680Z,77.80
2019-03-28T23:20:16.306Z,78.70
2019-03-28T23:25:41.083Z,78.80
2019-03-28T23:31:06.599Z,79.00
2019-03-28T23:36:31.349Z,79.00
2019-03-28T23:41:55.746Z,78.80
2019-03-28T23:47:20.978Z,79.40
2019-03-28T23:52:45.712Z,79.60
2019-03-28T23:58:10.937Z,79.50
